createdAt,value
2022-09-23T00:01:09.870Z,9.37
2022-09-23T00:03:39.125Z,9.38
2022-09-23T00:06:24.241Z,9.30
2022-09-23T00:08:52.632Z,9.44
2022-09-23T00:11:22.554Z,9.33
2022-09-23T00:13:52.437Z,9.20
2022-09-23T00:16:22.302Z,9.33
2022-09-23T00:18:51.751Z,9.09
2022-09-23T00:21:20.462Z,9.14
2022-09-23T00:23:47.535Z,9.06
2022-09-23T00:26:16.693Z,9.21
2022-09-23T00:28:43.638Z,8.69
2022-09-23T00:31:25.830Z,8.98
2022-09-23T00:33:54.767Z,8.88
2022-09-23T00:36:21.277Z,8.93
2022-09-23T00:38:47.869Z,8.68
2022-09-23T00:41:17.650Z,8.61
2022-09-23T00:43:47.978Z,9.30
2022-09-23T00:46:22.033Z,9.21
2022-09-23T00:48:56.016Z,8.71
2022-09-23T00:51:26.414Z,8.77
2022-09-23T00:53:53.125Z,9.09
2022-09-23T00:56:22.253Z,9.22
2022-09-23T00:58:50.288Z,9.04
2022-09-23T01:01:17.130Z,8.98
2022-09-23T01:03:45.614Z,8.63
2022-09-23T01:06:13.535Z,8.41
2022-09-23T01:08:42.266Z,8.60
2022-09-23T01:11:34.052Z,8.64
2022-09-23T01:14:05.479Z,8.47
2022-09-23T01:16:44.423Z,8.46
2022-09-23T01:19:32.564Z,8.70
2022-09-23T01:22:18.388Z,8.77
2022-09-23T01:25:32.339Z,8.45
2022-09-23T01:28:07.696Z,8.37
2022-09-23T01:31:02.291Z,8.41
2022-09-23T01:33:49.274Z,8.36
2022-09-23T01:36:51.586Z,8.38
2022-09-23T01:39:33.203Z,8.20
2022-09-23T01:42:31.515Z,8.48
2022-09-23T01:45:07.130Z,8.39
2022-09-23T01:47:38.690Z,8.54
2022-09-23T01:50:42.519Z,8.40
2022-09-23T01:53:19.121Z,8.23
2022-09-23T01:55:51.525Z,8.55
2022-09-23T01:58:26.951Z,8.21
2022-09-23T02:00:59.750Z,8.33
2022-09-23T02:03:33.747Z,8.14
2022-09-23T02:06:10.633Z,8.16
2022-09-23T02:08:50.122Z,8.22
2022-09-23T02:11:18.039Z,8.57
2022-09-23T02:13:56.005Z,8.25
2022-09-23T02:16:26.357Z,8.24
2022-09-23T02:18:58.087Z,8.01
2022-09-23T02:21:36.259Z,8.11
2022-09-23T02:24:10.202Z,8.41
2022-09-23T02:27:06.021Z,8.26
2022-09-23T02:30:00.611Z,8.37
2022-09-23T02:32:42.035Z,8.52
2022-09-23T02:35:15.830Z,8.52
2022-09-23T02:37:54.049Z,8.38
2022-09-23T02:40:26.385Z,8.40
2022-09-23T02:43:05.704Z,8.00
2022-09-23T02:45:33.545Z,7.90
2022-09-23T02:48:21.948Z,8.11
2022-09-23T02:50:48.942Z,7.94
2022-09-23T02:53:16.113Z,7.92
2022-09-23T02:55:43.351Z,8.35
2022-09-23T02:58:13.325Z,8.10
2022-09-23T03:01:06.088Z,8.07
2022-09-23T03:04:10.242Z,8.32
2022-09-23T03:06:45.744Z,7.90
2022-09-23T03:09:25.491Z,7.83
2022-09-23T03:12:32.334Z,7.48
2022-09-23T03:15:09.368Z,7.57
2022-09-23T03:17:47.391Z,7.73
2022-09-23T03:20:17.645Z,7.96
2022-09-23T03:22:55.720Z,7.63
2022-09-23T03:25:24.814Z,7.53
2022-09-23T03:27:58.161Z,7.82
2022-09-23T03:30:26.403Z,7.66
2022-09-23T03:32:54.969Z,7.46
2022-09-23T03:35:24.768Z,7.95
2022-09-23T03:38:07.108Z,7.98
2022-09-23T03:40:41.803Z,8.03
2022-09-23T03:43:09.559Z,7.78
2022-09-23T03:45:36.461Z,7.66
2022-09-23T03:48:03.887Z,7.93
2022-09-23T03:50:30.525Z,8.22
2022-09-23T03:52:57.024Z,7.88
2022-09-23T03:55:23.567Z,7.79
2022-09-23T03:57:50.028Z,7.78
2022-09-23T04:00:16.565Z,7.90
2022-09-23T04:02:43.139Z,7.81
2022-09-23T04:05:11.308Z,7.74
2022-09-23T04:07:38.229Z,7.57
2022-09-23T04:10:05.955Z,7.38
2022-09-23T04:12:32.500Z,7.52
2022-09-23T04:14:58.938Z,7.63
2022-09-23T04:17:25.492Z,7.56
2022-09-23T04:19:51.972Z,7.53
2022-09-23T04:22:18.530Z,7.59
2022-09-23T04:24:45.080Z,7.50
2022-09-23T04:27:11.564Z,7.68
2022-09-23T04:29:38.108Z,7.56
2022-09-23T04:32:04.721Z,7.65
2022-09-23T04:34:31.324Z,7.40
2022-09-23T04:36:57.862Z,7.37
2022-09-23T04:39:24.337Z,7.48
2022-09-23T04:41:50.884Z,7.76
2022-09-23T04:44:17.390Z,7.72
2022-09-23T04:46:47.408Z,7.82
2022-09-23T04:49:15.170Z,7.69
2022-09-23T04:51:43.375Z,7.54
2022-09-23T04:54:11.931Z,7.76
2022-09-23T04:56:39.641Z,7.72
2022-09-23T04:59:06.973Z,7.74
2022-09-23T05:01:35.063Z,7.78
2022-09-23T05:04:05.262Z,7.70
2022-09-23T05:06:35.861Z,7.69
2022-09-23T05:09:05.378Z,8.12
2022-09-23T05:11:32.456Z,8.10
2022-09-23T05:13:59.498Z,8.19
2022-09-23T05:16:27.077Z,8.05
2022-09-23T05:18:54.384Z,7.79
2022-09-23T05:21:23.376Z,8.10
2022-09-23T05:23:54.159Z,8.02
2022-09-23T05:26:22.472Z,8.13
2022-09-23T05:28:48.960Z,8.10
2022-09-23T05:31:20.362Z,8.10
2022-09-23T05:33:57.172Z,8.00
2022-09-23T05:36:25.176Z,8.41
2022-09-23T05:38:52.572Z,8.34
2022-09-23T05:41:22.881Z,8.35
2022-09-23T05:43:51.624Z,8.62
2022-09-23T05:46:23.510Z,9.05
2022-09-23T05:48:50.644Z,9.28
2022-09-23T05:51:20.003Z,9.58
2022-09-23T05:53:47.858Z,9.93
2022-09-23T05:56:19.611Z,10.10
2022-09-23T05:58:48.940Z,10.18
2022-09-23T06:01:18.322Z,10.44
2022-09-23T06:03:48.879Z,10.45
2022-09-23T06:06:20.134Z,10.27
2022-09-23T06:08:47.762Z,10.79
2022-09-23T06:11:14.597Z,10.62
2022-09-23T06:13:41.725Z,10.87
2022-09-23T06:16:10.818Z,11.46
2022-09-23T06:18:42.312Z,11.64
2022-09-23T06:21:14.129Z,12.27
2022-09-23T06:23:42.160Z,12.75
2022-09-23T06:26:10.915Z,12.83
2022-09-23T06:28:39.614Z,11.90
2022-09-23T06:31:13.154Z,11.74
2022-09-23T06:33:40.506Z,11.50
2022-09-23T06:36:07.775Z,11.30
2022-09-23T06:38:35.295Z,11.09
2022-09-23T06:41:03.329Z,11.38
2022-09-23T06:43:30.584Z,11.34
2022-09-23T06:46:02.029Z,11.38
2022-09-23T06:48:28.874Z,11.86
2022-09-23T06:50:59.447Z,11.72
2022-09-23T06:53:25.977Z,11.62
2022-09-23T06:56:06.760Z,11.92
2022-09-23T06:58:35.489Z,11.81
2022-09-23T07:01:03.777Z,11.55
2022-09-23T07:03:31.698Z,11.75
2022-09-23T07:05:59.089Z,12.51
2022-09-23T07:08:27.483Z,12.36
2022-09-23T07:10:55.080Z,11.73
2022-09-23T07:13:21.669Z,12.72
2022-09-23T07:15:52.998Z,12.61
2022-09-23T07:18:22.221Z,12.57
2022-09-23T07:20:48.838Z,12.45
2022-09-23T07:23:17.487Z,12.74
2022-09-23T07:25:46.562Z,13.02
2022-09-23T07:28:13.682Z,13.67
2022-09-23T07:30:48.953Z,12.94
2022-09-23T07:33:31.554Z,13.18
2022-09-23T07:35:59.143Z,13.09
2022-09-23T07:38:30.123Z,13.26
2022-09-23T07:41:05.197Z,13.19
2022-09-23T07:43:34.619Z,13.46
2022-09-23T07:46:03.867Z,13.59
2022-09-23T07:48:34.342Z,14.12
2022-09-23T07:51:07.573Z,14.06
2022-09-23T07:53:34.467Z,14.04
2022-09-23T07:56:01.236Z,14.55
2022-09-23T07:58:27.723Z,14.14
2022-09-23T08:00:54.180Z,13.81
2022-09-23T08:03:21.271Z,13.47
2022-09-23T08:05:47.833Z,14.35
2022-09-23T08:08:14.374Z,14.76
2022-09-23T08:10:40.982Z,14.95
2022-09-23T08:13:07.545Z,15.06
2022-09-23T08:15:34.262Z,15.53
2022-09-23T08:18:01.758Z,14.34
2022-09-23T08:20:47.760Z,15.21
2022-09-23T08:23:16.631Z,16.37
2022-09-23T08:25:47.045Z,16.31
2022-09-23T08:28:16.574Z,16.33
2022-09-23T08:30:44.864Z,16.94
2022-09-23T08:33:12.219Z,16.41
2022-09-23T08:35:38.963Z,16.50
2022-09-23T08:38:06.171Z,16.35
2022-09-23T08:40:35.518Z,16.54
2022-09-23T08:43:02.288Z,16.35
2022-09-23T08:45:29.069Z,16.08
2022-09-23T08:48:01.758Z,17.15
2022-09-23T08:50:41.221Z,17.35
2022-09-23T08:53:28.679Z,18.44
2022-09-23T08:55:59.541Z,17.39
2022-09-23T08:58:55.129Z,19.68
2022-09-23T09:01:44.330Z,20.36
2022-09-23T09:04:15.989Z,19.25
2022-09-23T09:10:22.309Z,18.29
2022-09-23T09:13:44.791Z,17.57
2022-09-23T09:16:36.533Z,20.17
2022-09-23T09:19:17.047Z,18.66
2022-09-23T09:21:47.937Z,18.87
2022-09-23T09:24:21.684Z,20.47
2022-09-23T09:26:48.231Z,20.18
2022-09-23T09:29:35.269Z,20.51
2022-09-23T09:32:15.292Z,22.08
2022-09-23T09:34:54.683Z,23.08
2022-09-23T09:37:39.159Z,23.12
2022-09-23T09:40:08.841Z,21.38
2022-09-23T09:42:45.176Z,21.97
2022-09-23T09:45:19.725Z,19.52
2022-09-23T09:48:27.325Z,19.57
2022-09-23T09:50:55.884Z,19.66
2022-09-23T09:53:25.778Z,21.31
2022-09-23T09:56:08.767Z,22.94
2022-09-23T09:58:45.997Z,24.32
2022-09-23T10:01:31.071Z,25.23
2022-09-23T10:04:00.572Z,22.00
2022-09-23T10:06:29.820Z,21.26
2022-09-23T10:09:10.760Z,23.42
2022-09-23T10:11:38.752Z,21.98
2022-09-23T10:14:18.891Z,22.17
2022-09-23T10:16:48.622Z,21.33
2022-09-23T10:19:27.436Z,23.22
2022-09-23T10:21:59.633Z,24.50
2022-09-23T10:24:32.056Z,26.20
2022-09-23T10:27:07.518Z,25.95
2022-09-23T10:29:34.019Z,22.21
2022-09-23T10:32:17.030Z,23.13
2022-09-23T10:34:46.682Z,22.75
2022-09-23T10:37:33.831Z,22.87
2022-09-23T10:40:24.986Z,24.51
2022-09-23T10:43:19.732Z,22.94
2022-09-23T10:46:08.270Z,23.24
2022-09-23T10:48:58.031Z,24.06
2022-09-23T10:51:43.605Z,24.89
2022-09-23T10:54:31.313Z,23.70
2022-09-23T10:57:27.258Z,25.50
2022-09-23T11:00:04.520Z,22.83
2022-09-23T11:03:06.767Z,22.96
2022-09-23T11:06:05.156Z,26.13
2022-09-23T11:08:59.164Z,28.03
2022-09-23T11:11:34.518Z,23.77
2022-09-23T11:14:25.633Z,22.97
2022-09-23T11:17:14.521Z,24.88
2022-09-23T11:19:51.417Z,25.46
2022-09-23T11:22:47.013Z,25.29
2022-09-23T11:25:27.956Z,25.93
2022-09-23T11:28:09.693Z,26.21
2022-09-23T11:31:05.468Z,26.64
2022-09-23T11:33:44.748Z,28.63
2022-09-23T11:36:37.906Z,28.53
2022-09-23T11:39:27.407Z,26.72
2022-09-23T11:41:56.670Z,26.48
2022-09-23T11:44:35.562Z,24.21
2022-09-23T11:47:10.837Z,21.90
2022-09-23T11:49:53.680Z,22.11
2022-09-23T11:52:42.263Z,24.35
2022-09-23T11:55:28.868Z,25.97
2022-09-23T11:58:22.649Z,27.20
2022-09-23T12:01:03.135Z,26.41
2022-09-23T12:03:48.103Z,26.15
2022-09-23T12:06:40.224Z,25.63
2022-09-23T12:09:47.335Z,24.74
2022-09-23T12:12:21.914Z,22.72
2022-09-23T12:14:56.614Z,24.17
2022-09-23T12:17:44.651Z,24.50
2022-09-23T12:20:41.375Z,25.34
2022-09-23T12:23:18.960Z,26.33
2022-09-23T12:25:49.884Z,27.12
2022-09-23T12:28:28.185Z,27.93
2022-09-23T12:30:58.520Z,27.41
2022-09-23T12:33:30.271Z,27.46
2022-09-23T12:36:07.158Z,25.72
2022-09-23T12:38:40.314Z,24.17
2022-09-23T12:41:33.628Z,25.09
2022-09-23T12:44:13.486Z,24.17
2022-09-23T12:46:44.390Z,24.02
2022-09-23T12:49:29.179Z,24.46
2022-09-23T12:52:18.657Z,26.90
2022-09-23T12:54:47.459Z,26.25
2022-09-23T12:57:33.885Z,27.08
2022-09-23T13:00:06.594Z,27.16
2022-09-23T13:02:39.314Z,27.75
2022-09-23T13:05:27.623Z,28.14
2022-09-23T13:08:02.424Z,26.53
2022-09-23T13:10:38.211Z,26.98
2022-09-23T13:13:06.470Z,27.45
2022-09-23T13:15:35.480Z,27.75
2022-09-23T13:18:20.338Z,27.49
2022-09-23T13:20:51.298Z,27.36
2022-09-23T13:23:26.760Z,27.55
2022-09-23T13:25:57.114Z,26.75
2022-09-23T13:28:34.313Z,27.02
2022-09-23T13:31:14.063Z,25.26
2022-09-23T13:33:44.865Z,24.90
2022-09-23T13:36:19.467Z,24.95
2022-09-23T13:38:46.884Z,26.01
2022-09-23T13:41:20.004Z,25.84
2022-09-23T13:43:49.251Z,26.01
2022-09-23T13:46:22.482Z,26.74
2022-09-23T13:48:54.712Z,24.75
2022-09-23T13:51:31.562Z,24.62
2022-09-23T13:54:00.206Z,26.20
2022-09-23T13:56:29.901Z,25.95
2022-09-23T13:59:40.914Z,25.68
2022-09-23T14:02:16.112Z,26.17
2022-09-23T14:04:43.163Z,26.04
2022-09-23T14:07:12.124Z,25.15
2022-09-23T14:09:43.509Z,24.19
2022-09-23T14:12:10.954Z,23.95
2022-09-23T14:14:39.907Z,23.48
2022-09-23T14:17:08.696Z,23.04
2022-09-23T14:19:36.761Z,23.44
2022-09-23T14:22:03.668Z,23.28
2022-09-23T14:24:30.203Z,22.44
2022-09-23T14:27:01.450Z,22.23
2022-09-23T14:29:33.854Z,21.63
2022-09-23T14:32:04.240Z,20.90
2022-09-23T14:34:44.571Z,21.45
2022-09-23T14:37:51.167Z,21.11
2022-09-23T14:40:21.251Z,21.11
2022-09-23T14:43:15.685Z,20.57
2022-09-23T14:45:47.288Z,20.86
2022-09-23T14:48:22.490Z,20.80
2022-09-23T14:50:54.519Z,21.09
2022-09-23T14:53:23.812Z,21.26
2022-09-23T14:56:07.469Z,20.88
2022-09-23T14:58:51.043Z,20.76
2022-09-23T15:01:31.038Z,20.81
2022-09-23T15:04:18.636Z,19.91
2022-09-23T15:06:47.521Z,20.47
2022-09-23T15:09:23.662Z,20.83
2022-09-23T15:11:57.426Z,20.69
2022-09-23T15:14:37.926Z,20.58
2022-09-23T15:17:12.832Z,20.48
2022-09-23T15:19:39.504Z,20.61
2022-09-23T15:22:08.311Z,20.16
2022-09-23T15:24:40.670Z,20.07
2022-09-23T15:27:19.325Z,20.02
2022-09-23T15:29:46.876Z,20.50
2022-09-23T15:32:13.338Z,20.50
2022-09-23T15:34:39.836Z,20.40
2022-09-23T15:37:09.246Z,20.11
2022-09-23T15:39:36.546Z,19.93
2022-09-23T15:42:03.262Z,19.94
2022-09-23T15:44:29.923Z,19.93
2022-09-23T15:46:59.902Z,20.37
2022-09-23T15:49:34.072Z,20.30
2022-09-23T15:52:01.564Z,20.40
2022-09-23T15:54:29.210Z,20.51
2022-09-23T15:57:00.339Z,20.60
2022-09-23T15:59:28.544Z,20.57
2022-09-23T16:01:56.564Z,20.15
2022-09-23T16:04:23.668Z,19.56
2022-09-23T16:06:50.263Z,19.59
2022-09-23T16:09:16.823Z,19.61
2022-09-23T16:11:46.036Z,18.90
2022-09-23T16:14:17.279Z,19.29
2022-09-23T16:16:45.257Z,19.29
2022-09-23T16:19:12.365Z,19.35
2022-09-23T16:21:40.794Z,19.47
2022-09-23T16:24:18.314Z,19.39
2022-09-23T16:26:46.721Z,19.21
2022-09-23T16:29:13.515Z,18.62
2022-09-23T16:31:40.430Z,19.15
2022-09-23T16:34:07.239Z,18.99
2022-09-23T16:36:41.834Z,18.85
2022-09-23T16:39:12.014Z,18.86
2022-09-23T16:41:38.917Z,18.88
2022-09-23T16:44:09.193Z,18.34
2022-09-23T16:46:36.357Z,18.66
2022-09-23T16:49:03.110Z,18.79
2022-09-23T16:51:38.026Z,18.41
2022-09-23T16:54:12.492Z,17.95
2022-09-23T16:56:44.091Z,18.10
2022-09-23T16:59:12.400Z,18.08
2022-09-23T17:01:57.950Z,18.25
2022-09-23T17:04:24.602Z,18.16
2022-09-23T17:06:52.751Z,17.78
2022-09-23T17:09:21.275Z,17.87
2022-09-23T17:11:57.750Z,17.68
2022-09-23T17:14:24.478Z,17.60
2022-09-23T17:16:51.024Z,17.52
2022-09-23T17:19:17.592Z,17.60
2022-09-23T17:21:44.653Z,17.35
2022-09-23T17:24:11.404Z,17.17
2022-09-23T17:26:38.197Z,17.15
2022-09-23T17:29:05.521Z,17.17
2022-09-23T17:31:32.201Z,16.98
2022-09-23T17:33:58.804Z,16.98
2022-09-23T17:36:25.314Z,16.91
2022-09-23T17:38:54.680Z,16.99
2022-09-23T17:41:21.788Z,17.07
2022-09-23T17:43:53.655Z,16.96
2022-09-23T17:46:20.197Z,16.95
2022-09-23T17:48:46.958Z,16.92
2022-09-23T17:51:19.679Z,16.89
2022-09-23T17:53:47.354Z,16.84
2022-09-23T17:56:15.316Z,16.71
2022-09-23T17:58:42.902Z,16.67
2022-09-23T18:01:14.636Z,16.65
2022-09-23T18:03:44.183Z,16.68
2022-09-23T18:06:16.490Z,16.60
2022-09-23T18:08:44.562Z,16.53
2022-09-23T18:11:19.585Z,16.50
2022-09-23T18:13:54.450Z,16.68
2022-09-23T18:16:23.545Z,16.64
2022-09-23T18:18:54.657Z,16.46
2022-09-23T18:21:22.498Z,16.25
2022-09-23T18:23:49.543Z,16.27
2022-09-23T18:26:18.788Z,16.29
2022-09-23T18:28:45.374Z,16.13
2022-09-23T18:31:12.272Z,16.11
2022-09-23T18:33:39.147Z,16.14
2022-09-23T18:36:06.854Z,16.01
2022-09-23T18:38:33.390Z,15.99
2022-09-23T18:41:00.509Z,15.91
2022-09-23T18:43:41.358Z,15.82
2022-09-23T18:46:13.645Z,16.00
2022-09-23T18:48:59.517Z,16.15
2022-09-23T18:51:28.965Z,15.87
2022-09-23T18:53:59.403Z,15.83
2022-09-23T18:56:29.594Z,15.79
2022-09-23T18:58:56.779Z,15.80
2022-09-23T19:01:24.184Z,15.53
2022-09-23T19:03:55.882Z,15.57
2022-09-23T19:06:23.043Z,15.57
2022-09-23T19:08:51.482Z,15.82
2022-09-23T19:11:18.513Z,15.77
2022-09-23T19:13:45.323Z,15.71
2022-09-23T19:16:16.436Z,15.55
2022-09-23T19:18:46.331Z,15.70
2022-09-23T19:21:14.508Z,15.98
2022-09-23T19:23:49.167Z,15.97
2022-09-23T19:26:19.015Z,15.65
2022-09-23T19:28:53.685Z,15.39
2022-09-23T19:31:23.535Z,15.31
2022-09-23T19:33:56.814Z,15.41
2022-09-23T19:36:26.007Z,15.20
2022-09-23T19:38:54.295Z,15.12
2022-09-23T19:41:20.776Z,15.22
2022-09-23T19:43:48.613Z,15.18
2022-09-23T19:46:15.609Z,15.09
2022-09-23T19:48:42.387Z,15.16
2022-09-23T19:51:08.885Z,15.13
2022-09-23T19:53:35.364Z,15.37
2022-09-23T19:56:04.823Z,15.08
2022-09-23T19:58:32.993Z,14.92
2022-09-23T20:00:59.618Z,14.78
2022-09-23T20:03:26.944Z,14.68
2022-09-23T20:05:56.973Z,14.64
2022-09-23T20:08:24.167Z,14.59
2022-09-23T20:10:50.738Z,14.85
2022-09-23T20:13:19.881Z,14.74
2022-09-23T20:15:48.190Z,14.40
2022-09-23T20:18:15.314Z,14.10
2022-09-23T20:20:41.898Z,14.23
2022-09-23T20:23:08.395Z,14.19
2022-09-23T20:25:54.803Z,14.05
2022-09-23T20:28:22.254Z,14.26
2022-09-23T20:30:48.922Z,14.46
2022-09-23T20:33:15.653Z,14.30
2022-09-23T20:35:43.754Z,13.92
2022-09-23T20:38:10.619Z,13.83
2022-09-23T20:40:38.426Z,14.18
2022-09-23T20:43:05.193Z,14.30
2022-09-23T20:45:31.885Z,14.19
2022-09-23T20:48:00.099Z,14.21
2022-09-23T20:50:26.657Z,13.92
2022-09-23T20:52:53.188Z,13.95
2022-09-23T20:55:19.664Z,14.22
2022-09-23T20:57:48.352Z,13.99
2022-09-23T21:00:15.561Z,13.95
2022-09-23T21:02:43.271Z,13.90
2022-09-23T21:05:10.415Z,13.74
2022-09-23T21:07:37.427Z,13.76
2022-09-23T21:10:06.788Z,14.03
2022-09-23T21:12:33.282Z,13.87
2022-09-23T21:14:59.707Z,13.67
2022-09-23T21:17:26.806Z,13.68
2022-09-23T21:19:53.246Z,13.88
2022-09-23T21:22:19.714Z,13.97
2022-09-23T21:25:25.968Z,13.77
2022-09-23T21:27:37.073Z,13.64
2022-09-23T21:30:04.630Z,13.58
2022-09-23T21:32:31.190Z,13.60
2022-09-23T21:34:57.658Z,13.60
2022-09-23T21:37:25.357Z,13.68
2022-09-23T21:40:10.406Z,13.72
2022-09-23T21:42:36.986Z,13.64
2022-09-23T21:45:05.154Z,13.52
2022-09-23T21:47:32.327Z,13.34
2022-09-23T21:49:58.787Z,13.27
2022-09-23T21:52:25.230Z,13.38
2022-09-23T21:54:51.976Z,13.45
2022-09-23T21:57:18.447Z,13.29
2022-09-23T21:59:44.943Z,13.30
2022-09-23T22:02:11.417Z,13.34
2022-09-23T22:04:38.024Z,13.23
2022-09-23T22:07:04.719Z,13.14
2022-09-23T22:09:31.286Z,13.22
2022-09-23T22:12:11.586Z,13.11
2022-09-23T22:14:39.306Z,13.09
2022-09-23T22:17:07.755Z,13.20
2022-09-23T22:19:40.320Z,13.19
2022-09-23T22:22:15.036Z,13.33
2022-09-23T22:24:46.270Z,13.18
2022-09-23T22:27:14.505Z,13.12
2022-09-23T22:29:59.778Z,12.97
2022-09-23T22:32:40.413Z,13.19
2022-09-23T22:35:17.723Z,13.46
2022-09-23T22:37:44.923Z,13.36
2022-09-23T22:40:14.328Z,13.39
2022-09-23T22:42:42.240Z,13.06
2022-09-23T22:45:10.427Z,13.16
2022-09-23T22:47:38.773Z,13.31
2022-09-23T22:50:06.961Z,13.12
2022-09-23T22:52:33.575Z,13.08
2022-09-23T22:55:00.237Z,13.11
2022-09-23T22:57:26.771Z,13.35
2022-09-23T22:59:53.245Z,13.17
2022-09-23T23:02:22.326Z,12.94
2022-09-23T23:04:49.358Z,13.36
2022-09-23T23:07:20.189Z,13.39
2022-09-23T23:09:51.078Z,13.21
2022-09-23T23:12:19.850Z,13.22
2022-09-23T23:14:46.964Z,13.22
2022-09-23T23:17:13.639Z,13.07
2022-09-23T23:19:40.163Z,13.06
2022-09-23T23:22:06.647Z,13.09
2022-09-23T23:24:33.173Z,13.03
2022-09-23T23:26:59.646Z,13.14
2022-09-23T23:29:26.094Z,13.07
2022-09-23T23:31:52.672Z,13.18
2022-09-23T23:34:21.260Z,13.25
2022-09-23T23:36:54.568Z,13.05
2022-09-23T23:39:23.463Z,13.12
2022-09-23T23:41:57.711Z,12.96
2022-09-23T23:44:25.731Z,12.81
2022-09-23T23:46:53.328Z,12.77
2022-09-23T23:49:20.188Z,12.93
2022-09-23T23:51:47.773Z,12.85
2022-09-23T23:54:15.322Z,12.79
2022-09-23T23:56:42.070Z,13.02
2022-09-23T23:59:08.585Z,13.26
